Time;durP1;ratioP1;P1;durP2;ratioP2;P2;SDS_P1;SDS_P2;PMS_P1;PMS_P2;Temp;Humidity;BMP_temperature;BMP_pressure;BME280_temperature;BME280_humidity;BME280_pressure;Samples;Min_cycle;Max_cycle;Signal;HPM_P1;HPM_P2
2021/05/24 00:02:17;;;;;;;3.77;2.50;;;;;;;11.95;72.92;96322.63;4975259;28;20309;-57
2021/05/24 00:04:44;;;;;;;3.53;2.83;;;;;;;11.98;72.94;96318.72;4957979;28;20530;-56
2021/05/24 00:07:10;;;;;;;2.97;2.77;;;;;;;11.88;73.72;96308.81;4960149;28;20174;-58
2021/05/24 00:09:35;;;;;;;2.70;2.50;;;;;;;11.98;73.75;96303.72;4964822;28;20426;-56
2021/05/24 00:12:03;;;;;;;3.17;2.97;;;;;;;12.03;73.37;96293.28;4991633;28;20184;-57
2021/05/24 00:14:31;;;;;;;3.00;2.70;;;;;;;12.05;73.49;96291.22;4994480;28;20849;-57
2021/05/24 00:16:57;;;;;;;2.87;2.50;;;;;;;12.11;73.05;96287.63;4994722;28;20421;-57
2021/05/24 00:19:23;;;;;;;2.30;2.20;;;;;;;11.94;73.89;96293.91;4994500;28;20515;-56
2021/05/24 00:21:48;;;;;;;5.57;3.20;;;;;;;11.74;74.21;96283.78;4994248;28;20180;-57
2021/05/24 00:24:14;;;;;;;4.50;2.83;;;;;;;11.64;75.07;96274.88;4994687;28;20670;-57
2021/05/24 00:26:39;;;;;;;4.33;2.50;;;;;;;11.66;74.40;96275.47;4978557;28;20198;-57
2021/05/24 00:29:04;;;;;;;3.33;2.80;;;;;;;11.61;74.85;96281.41;4975135;28;20628;-57
2021/05/24 00:31:30;;;;;;;4.47;2.70;;;;;;;11.57;74.69;96288.16;4986172;28;20264;-57
2021/05/24 00:33:56;;;;;;;3.63;2.97;;;;;;;11.65;74.45;96287.81;4993990;28;20189;-56
2021/05/24 00:36:21;;;;;;;7.63;3.13;;;;;;;11.43;75.57;96282.34;4994454;28;20173;-57
2021/05/24 00:38:46;;;;;;;6.33;3.00;;;;;;;11.51;75.74;96277.75;4979619;28;20190;-57
2021/05/24 00:41:12;;;;;;;3.70;2.60;;;;;;;11.45;75.61;96276.84;4975021;28;20242;-58
2021/05/24 00:43:38;;;;;;;2.80;2.60;;;;;;;11.52;75.00;96268.84;4974280;28;20552;-56
2021/05/24 00:46:03;;;;;;;2.87;2.67;;;;;;;11.47;75.20;96268.75;4974827;28;20166;-56
2021/05/24 00:48:28;;;;;;;2.93;2.70;;;;;;;11.35;75.53;96256.44;4974847;28;20176;-57
2021/05/24 00:50:54;;;;;;;4.47;2.70;;;;;;;11.46;75.54;96244.25;4974821;28;20636;-56
2021/05/24 00:53:19;;;;;;;2.53;2.33;;;;;;;11.54;76.02;96245.72;4986920;28;20280;-56
2021/05/24 00:55:45;;;;;;;2.50;2.20;;;;;;;11.41;75.90;96238.91;4994071;28;20174;-56
2021/05/24 00:58:10;;;;;;;3.50;3.20;;;;;;;11.39;75.75;96240.97;4994161;28;20639;-57
2021/05/24 01:00:39;;;;;;;2.87;2.63;;;;;;;11.38;76.05;96236.72;4976576;28;20741;-56
2021/05/24 01:03:06;;;;;;;3.53;2.90;;;;;;;11.18;76.78;96236.31;4993530;28;20667;-57
2021/05/24 01:05:31;;;;;;;4.20;3.07;;;;;;;11.35;76.43;96243.28;4993991;28;20416;-58
2021/05/24 01:07:57;;;;;;;2.90;2.70;;;;;;;11.47;75.73;96240.59;4990564;28;20423;-58
2021/05/24 01:10:23;;;;;;;4.00;3.60;;;;;;;11.52;76.13;96232.00;4987226;28;20673;-56
2021/05/24 01:12:48;;;;;;;3.40;3.10;;;;;;;11.59;75.93;96236.09;4974091;28;20205;-57
2021/05/24 01:15:14;;;;;;;5.00;3.47;;;;;;;11.55;75.74;96229.72;4974679;28;20493;-57
2021/05/24 01:17:40;;;;;;;5.10;3.30;;;;;;;11.51;76.03;96222.50;4974503;28;20193;-57
2021/05/24 01:20:07;;;;;;;3.83;2.90;;;;;;;11.31;77.08;96231.59;4987555;28;21045;-57
2021/05/24 01:22:34;;;;;;;4.23;3.27;;;;;;;11.49;76.62;96221.94;4993324;28;20674;-58
2021/05/24 01:24:59;;;;;;;6.50;3.77;;;;;;;11.57;76.21;96211.84;4993105;28;20420;-57
2021/05/24 01:27:25;;;;;;;3.63;3.30;;;;;;;11.51;76.85;96210.16;4989324;28;20431;-57
2021/05/24 01:29:50;;;;;;;3.37;3.07;;;;;;;11.68;76.01;96208.41;4974360;28;20633;-56
2021/05/24 01:32:15;;;;;;;4.43;3.23;;;;;;;11.72;75.20;96200.84;4973850;28;20224;-57
2021/05/24 01:34:42;;;;;;;3.40;3.07;;;;;;;11.64;75.95;96195.91;4974422;28;20166;-57
2021/05/24 01:37:07;;;;;;;4.33;3.50;;;;;;;11.50;75.88;96203.31;4974616;28;20186;-56
2021/05/24 01:39:33;;;;;;;3.17;2.90;;;;;;;11.43;76.57;96197.38;4974335;28;20441;-56
2021/05/24 01:41:58;;;;;;;3.50;3.20;;;;;;;11.37;77.41;96199.13;4974877;28;20664;-56
2021/05/24 01:44:33;;;;;;;5.20;3.40;;;;;;;11.50;76.67;96184.09;4974142;28;20732;-57
2021/05/24 01:46:58;;;;;;;3.00;2.70;;;;;;;11.67;76.15;96182.34;4974354;28;20177;-57
2021/05/24 01:49:24;;;;;;;3.23;2.93;;;;;;;11.64;74.84;96188.81;4974035;28;20896;-57
2021/05/24 01:51:51;;;;;;;3.20;2.90;;;;;;;11.51;75.64;96185.66;4973946;28;20581;-56
2021/05/24 01:54:17;;;;;;;3.40;3.10;;;;;;;11.36;76.50;96192.25;4982045;28;20440;-57
2021/05/24 01:56:43;;;;;;;2.90;2.70;;;;;;;11.20;76.75;96197.44;4988404;28;20516;-57
2021/05/24 01:59:09;;;;;;;3.57;3.27;;;;;;;11.38;76.17;96190.19;4974084;28;20202;-57
2021/05/24 02:01:35;;;;;;;3.90;3.50;;;;;;;11.30;76.43;96187.13;4973961;28;20605;-58
2021/05/24 02:04:01;;;;;;;3.13;2.80;;;;;;;11.22;76.67;96190.13;4973958;28;20426;-57
2021/05/24 02:06:27;;;;;;;2.90;2.53;;;;;;;11.18;77.34;96191.63;4974304;28;20186;-57
2021/05/24 02:08:52;;;;;;;4.17;2.70;;;;;;;11.38;76.43;96184.91;4975731;28;20413;-57
2021/05/24 02:11:19;;;;;;;3.17;2.47;;;;;;;11.41;76.10;96186.28;4980413;28;20199;-56
2021/05/24 02:13:45;;;;;;;3.47;2.47;;;;;;;11.26;76.01;96181.53;4996547;28;20189;-57
2021/05/24 02:16:11;;;;;;;5.07;2.50;;;;;;;11.21;75.93;96185.91;4996925;28;20417;-56
2021/05/24 02:18:36;;;;;;;2.00;1.90;;;;;;;11.36;75.55;96187.00;4996890;28;20404;-57
2021/05/24 02:21:03;;;;;;;2.90;2.10;;;;;;;11.51;75.98;96165.41;4996682;28;20578;-57
2021/05/24 02:23:28;;;;;;;2.40;2.17;;;;;;;11.59;75.68;96162.44;4980336;28;20226;-57
2021/05/24 02:25:54;;;;;;;2.70;2.10;;;;;;;11.55;75.27;96166.56;4996953;28;20408;-57
2021/05/24 02:28:19;;;;;;;2.20;2.10;;;;;;;11.50;75.02;96161.22;4996665;28;20531;-56
2021/05/24 02:30:45;;;;;;;2.67;1.93;;;;;;;11.43;75.10;96165.81;4994925;28;20669;-56
2021/05/24 02:33:10;;;;;;;2.93;2.03;;;;;;;11.44;74.83;96154.25;4996239;28;20189;-57
2021/05/24 02:35:36;;;;;;;1.70;1.60;;;;;;;11.53;74.56;96150.19;4993374;28;20177;-56
2021/05/24 02:38:02;;;;;;;1.67;1.50;;;;;;;11.47;74.87;96139.84;4988906;28;20281;-58
2021/05/24 02:40:28;;;;;;;2.17;1.97;;;;;;;11.55;75.23;96145.50;4979019;28;20688;-56
2021/05/24 02:42:53;;;;;;;1.93;1.50;;;;;;;11.64;74.46;96153.81;4976569;28;20456;-57
2021/05/24 02:45:20;;;;;;;1.67;1.33;;;;;;;11.29;72.35;96146.06;4976989;28;20177;-57
2021/05/24 02:47:47;;;;;;;1.60;1.50;;;;;;;11.18;72.52;96141.66;4976993;28;20181;-56
2021/05/24 02:50:17;;;;;;;1.70;1.60;;;;;;;11.37;72.82;96136.00;4976981;28;20404;-56
2021/05/24 02:52:43;;;;;;;1.80;1.70;;;;;;;11.66;72.61;96130.72;4976400;28;20453;-57
2021/05/24 02:55:09;;;;;;;1.50;1.40;;;;;;;11.54;72.73;96128.09;4992652;28;20475;-56
2021/05/24 02:57:35;;;;;;;1.80;1.67;;;;;;;11.52;73.76;96116.25;4996162;28;20183;-57
2021/05/24 03:00:00;;;;;;;1.53;1.43;;;;;;;11.63;73.44;96124.06;4979311;28;20453;-56
2021/05/24 03:02:28;;;;;;;2.10;1.47;;;;;;;11.75;73.37;96124.84;4976326;28;20199;-57
2021/05/24 03:04:54;;;;;;;1.73;1.60;;;;;;;11.89;72.82;96133.19;4976500;28;20575;-57
2021/05/24 03:07:20;;;;;;;2.47;1.47;;;;;;;11.67;71.73;96134.97;4976648;28;20410;-57
2021/05/24 03:09:46;;;;;;;2.10;1.20;;;;;;;11.78;72.22;96139.31;4991165;28;20973;-56
2021/05/24 03:12:12;;;;;;;1.40;1.30;;;;;;;11.72;72.83;96130.56;4993910;28;20775;-57
2021/05/24 03:14:38;;;;;;;1.70;1.60;;;;;;;11.70;74.00;96129.22;4976283;28;20456;-57
2021/05/24 03:17:04;;;;;;;1.90;1.43;;;;;;;11.74;73.24;96131.13;4976384;28;20186;-56
2021/05/24 03:19:29;;;;;;;2.43;1.70;;;;;;;11.72;73.45;96135.81;4976070;28;20462;-56
2021/05/24 03:21:54;;;;;;;2.73;1.53;;;;;;;11.86;73.56;96141.59;4976023;28;20643;-56
2021/05/24 03:24:20;;;;;;;2.30;1.30;;;;;;;11.92;73.34;96151.16;4989534;28;20205;-56
2021/05/24 03:26:45;;;;;;;1.97;1.10;;;;;;;11.76;70.58;96149.31;4988942;28;20213;-56
2021/05/24 03:29:11;;;;;;;1.70;1.60;;;;;;;11.78;72.99;96136.69;4976152;28;20163;-57
2021/05/24 03:31:36;;;;;;;1.30;1.30;;;;;;;11.72;73.94;96133.19;4975839;28;20597;-58
2021/05/24 03:34:01;;;;;;;1.30;1.30;;;;;;;11.73;73.10;96132.16;4976603;28;20252;-57
2021/05/24 03:36:27;;;;;;;1.73;1.37;;;;;;;11.72;71.25;96140.31;4976089;28;20319;-56
2021/05/24 03:38:52;;;;;;;2.97;1.43;;;;;;;11.79;71.21;96133.03;4985606;28;20197;-56
2021/05/24 03:41:18;;;;;;;1.30;1.20;;;;;;;11.87;71.85;96130.00;4982732;28;20181;-56
2021/05/24 03:43:45;;;;;;;2.40;1.20;;;;;;;11.98;72.21;96137.03;4994947;28;20543;-56
2021/05/24 03:46:11;;;;;;;2.53;1.20;;;;;;;11.99;72.04;96128.09;4995192;28;20187;-57
2021/05/24 03:48:37;;;;;;;2.50;1.23;;;;;;;12.01;72.10;96121.53;4992132;28;20416;-56
2021/05/24 03:51:06;;;;;;;1.60;1.10;;;;;;;12.07;71.76;96128.50;4994797;28;20788;-56
2021/05/24 03:53:32;;;;;;;1.50;1.20;;;;;;;12.09;72.40;96125.63;4994705;28;20408;-56
2021/05/24 03:55:57;;;;;;;2.00;1.20;;;;;;;12.02;72.83;96115.25;4978616;28;20425;-56
2021/05/24 03:58:23;;;;;;;1.77;1.20;;;;;;;11.99;73.29;96120.97;4975807;28;20174;-57
2021/05/24 04:00:48;;;;;;;1.30;1.20;;;;;;;12.09;72.25;96123.78;4975619;28;20194;-57
2021/05/24 04:03:14;;;;;;;1.30;1.20;;;;;;;12.10;71.74;96111.44;4991909;28;20284;-56
2021/05/24 04:05:41;;;;;;;2.60;1.63;;;;;;;12.00;72.51;96113.91;4994759;28;20185;-56
2021/05/24 04:08:07;;;;;;;2.17;1.40;;;;;;;12.06;71.99;96118.22;4995081;28;20524;-56
2021/05/24 04:10:36;;;;;;;1.60;1.50;;;;;;;12.14;71.89;96131.75;4994878;28;20763;-56
2021/05/24 04:13:03;;;;;;;3.00;1.73;;;;;;;12.07;71.52;96106.63;4994589;28;20435;-56
2021/05/24 04:15:29;;;;;;;1.40;1.30;;;;;;;11.99;72.62;96105.19;4994869;28;20487;-56
2021/05/24 04:17:58;;;;;;;1.43;1.33;;;;;;;11.99;73.35;96114.94;4977896;28;20425;-57
2021/05/24 04:20:24;;;;;;;1.90;1.47;;;;;;;12.08;72.75;96118.78;4975088;28;20787;-56
2021/05/24 04:22:50;;;;;;;1.47;1.37;;;;;;;12.14;70.48;96094.88;4981748;28;20468;-57
2021/05/24 04:25:15;;;;;;;1.20;1.10;;;;;;;12.22;70.99;96114.75;4994216;28;20456;-58
2021/05/24 04:27:41;;;;;;;1.67;1.30;;;;;;;12.23;70.72;96108.44;4994544;28;20408;-57
2021/05/24 04:30:08;;;;;;;1.50;1.30;;;;;;;12.18;67.10;96111.81;4994604;28;20168;-57
2021/05/24 04:32:34;;;;;;;1.67;1.30;;;;;;;12.17;68.40;96115.47;4977462;28;20201;-57
2021/05/24 04:34:59;;;;;;;1.30;1.20;;;;;;;12.05;70.18;96120.03;4975343;28;20465;-57
2021/05/24 04:37:25;;;;;;;1.60;1.50;;;;;;;12.03;70.35;96116.06;4957620;28;20422;-56
2021/05/24 04:39:50;;;;;;;1.70;1.50;;;;;;;12.05;69.87;96112.13;4974857;28;20735;-57
2021/05/24 04:42:16;;;;;;;1.43;1.10;;;;;;;11.97;70.00;96109.13;4974439;28;20238;-57
2021/05/24 04:44:42;;;;;;;1.30;1.20;;;;;;;12.00;70.03;96098.91;4979231;28;20571;-57
2021/05/24 04:47:07;;;;;;;2.87;1.37;;;;;;;12.04;70.29;96104.47;4979650;28;20192;-57
2021/05/24 04:49:33;;;;;;;1.30;1.20;;;;;;;12.07;69.81;96104.78;4974933;28;20157;-56
2021/05/24 04:51:59;;;;;;;3.10;1.30;;;;;;;12.10;70.51;96091.13;4974379;28;20170;-56
2021/05/24 04:54:25;;;;;;;1.30;1.20;;;;;;;12.14;70.97;96094.88;4974837;28;20552;-56
2021/05/24 04:56:51;;;;;;;1.63;1.40;;;;;;;12.22;71.73;96089.22;4975036;28;20401;-57
2021/05/24 04:59:16;;;;;;;1.10;1.10;;;;;;;12.23;70.90;96085.53;4974731;28;21034;-56
2021/05/24 05:01:42;;;;;;;1.57;1.30;;;;;;;12.32;71.33;96093.81;4978776;28;20170;-57
2021/05/24 05:04:07;;;;;;;2.10;1.53;;;;;;;12.40;71.59;96093.41;4969433;28;20224;-57
2021/05/24 05:06:33;;;;;;;1.20;1.20;;;;;;;12.29;70.79;96095.13;4975016;28;20166;-56
2021/05/24 05:08:58;;;;;;;1.83;1.40;;;;;;;12.38;69.88;96096.28;4974644;28;20162;-56
2021/05/24 05:11:24;;;;;;;1.60;1.50;;;;;;;12.43;69.23;96097.41;4974375;28;20229;-58
2021/05/24 05:13:49;;;;;;;1.67;1.40;;;;;;;12.51;69.29;96099.59;4988057;28;20536;-57
2021/05/24 05:16:15;;;;;;;1.53;1.30;;;;;;;12.50;69.24;96092.75;4986970;28;20257;-56
2021/05/24 05:18:40;;;;;;;1.10;1.00;;;;;;;12.59;68.47;96099.19;4974557;28;20166;-56
2021/05/24 05:21:06;;;;;;;1.33;1.20;;;;;;;12.62;68.08;96093.44;4974401;28;20545;-57
2021/05/24 05:23:32;;;;;;;1.90;1.20;;;;;;;12.61;68.78;96081.31;4974079;28;20198;-56
2021/05/24 05:25:57;;;;;;;1.57;1.10;;;;;;;12.69;67.61;96073.75;4974613;28;20201;-56
2021/05/24 05:28:23;;;;;;;2.60;1.60;;;;;;;12.80;65.29;96077.31;4957076;28;20178;-57
2021/05/24 05:30:52;;;;;;;1.57;1.40;;;;;;;12.75;67.77;96082.53;4979508;28;20205;-57
2021/05/24 05:33:18;;;;;;;1.30;1.23;;;;;;;12.81;66.29;96084.19;4993441;28;20433;-56
2021/05/24 05:35:46;;;;;;;1.20;1.10;;;;;;;12.66;66.63;96076.09;4993979;28;20416;-56
2021/05/24 05:38:12;;;;;;;2.80;1.70;;;;;;;12.60;67.16;96079.69;4993694;28;20199;-56
2021/05/24 05:40:38;;;;;;;1.33;1.23;;;;;;;12.71;65.75;96073.50;4989012;28;20834;-58
2021/05/24 05:43:03;;;;;;;1.30;1.10;;;;;;;12.86;66.29;96078.97;4957014;28;20212;-57
2021/05/24 05:45:28;;;;;;;2.27;1.23;;;;;;;12.92;67.33;96076.13;4982635;28;20178;-57
2021/05/24 05:47:54;;;;;;;2.73;1.27;;;;;;;13.02;68.06;96073.66;4997235;28;20205;-57
2021/05/24 05:50:20;;;;;;;1.50;1.40;;;;;;;13.15;68.21;96067.19;4997440;28;20189;-56
2021/05/24 05:52:45;;;;;;;2.13;1.50;;;;;;;13.17;67.10;96068.50;4997091;28;20254;-56
2021/05/24 05:55:11;;;;;;;2.33;1.20;;;;;;;13.27;66.85;96057.25;4997407;28;20412;-58
2021/05/24 05:57:36;;;;;;;1.60;1.50;;;;;;;13.34;67.20;96061.31;4997408;28;20209;-56
2021/05/24 06:00:04;;;;;;;1.40;1.30;;;;;;;13.47;66.76;96057.44;4993813;28;20201;-57
2021/05/24 06:02:29;;;;;;;1.50;1.40;;;;;;;13.51;68.36;96063.84;4977411;28;20191;-56
2021/05/24 06:04:55;;;;;;;3.60;1.10;;;;;;;13.68;68.81;96053.94;4977598;28;20425;-57
2021/05/24 06:07:20;;;;;;;2.03;1.20;;;;;;;13.74;67.01;96042.38;4977675;28;20178;-57
2021/05/24 06:09:45;;;;;;;1.83;1.63;;;;;;;13.84;63.46;96046.94;4991102;28;20169;-57
2021/05/24 06:12:11;;;;;;;2.57;1.53;;;;;;;13.79;63.06;96054.78;4996755;28;20632;-57
2021/05/24 06:14:37;;;;;;;1.70;1.07;;;;;;;13.90;63.40;96051.19;4995139;28;20198;-56
2021/05/24 06:17:05;;;;;;;1.07;0.97;;;;;;;14.00;63.84;96045.97;4990125;28;20177;-56
2021/05/24 06:19:30;;;;;;;1.80;1.30;;;;;;;13.96;60.17;96050.97;4991488;28;20976;-56
2021/05/24 06:21:56;;;;;;;3.00;1.50;;;;;;;14.04;61.20;96049.72;4983075;28;20435;-56
2021/05/24 06:24:21;;;;;;;1.10;1.00;;;;;;;13.75;60.38;96065.06;4996873;28;20223;-56
2021/05/24 06:26:46;;;;;;;1.83;1.07;;;;;;;13.47;60.17;96049.53;4996887;28;20201;-56
2021/05/24 06:29:12;;;;;;;1.73;1.20;;;;;;;13.75;60.59;96051.88;4996779;28;20177;-57
2021/05/24 06:31:39;;;;;;;1.30;1.17;;;;;;;13.73;59.96;96054.00;4996222;28;20267;-57
2021/05/24 06:34:04;;;;;;;1.50;0.90;;;;;;;13.52;60.75;96048.78;4996724;28;20200;-56
2021/05/24 06:36:30;;;;;;;1.00;1.00;;;;;;;13.88;60.44;96048.78;4993130;28;20430;-57
2021/05/24 06:38:56;;;;;;;1.23;0.90;;;;;;;13.86;59.57;96050.88;4996203;28;20189;-56
2021/05/24 06:41:21;;;;;;;1.40;0.90;;;;;;;13.72;60.72;96057.66;4996623;28;20181;-57
2021/05/24 06:43:47;;;;;;;2.67;1.40;;;;;;;13.86;60.10;96047.47;4995923;28;20443;-57
2021/05/24 06:46:12;;;;;;;1.70;0.90;;;;;;;14.13;59.13;96048.97;4996084;28;20185;-57
2021/05/24 06:48:38;;;;;;;1.47;1.00;;;;;;;14.00;58.96;96045.97;4992462;28;20182;-58
2021/05/24 06:51:03;;;;;;;1.10;1.00;;;;;;;14.23;58.91;96046.38;4983838;28;20192;-57
2021/05/24 06:53:29;;;;;;;0.90;0.90;;;;;;;14.18;58.08;96049.00;4995588;28;20281;-57
2021/05/24 06:55:54;;;;;;;2.00;1.00;;;;;;;14.32;57.97;96038.78;4995833;28;20170;-57
2021/05/24 06:58:20;;;;;;;3.43;1.17;;;;;;;14.54;58.03;96050.00;4996123;28;20173;-57
2021/05/24 07:00:45;;;;;;;2.00;1.10;;;;;;;14.73;58.09;96050.38;4996040;28;20190;-57
2021/05/24 07:03:11;;;;;;;3.47;1.17;;;;;;;14.48;57.24;96045.75;4995741;28;20292;-57
2021/05/24 07:05:37;;;;;;;2.07;1.10;;;;;;;14.31;57.69;96042.50;4991530;28;20215;-56
2021/05/24 07:08:02;;;;;;;1.23;1.00;;;;;;;14.33;58.11;96048.34;4995881;28;20817;-57
2021/05/24 07:10:28;;;;;;;1.30;0.93;;;;;;;14.38;55.40;96051.78;4979301;28;20181;-56
2021/05/24 07:12:53;;;;;;;1.40;1.30;;;;;;;14.53;55.90;96052.91;4975924;28;20248;-57
2021/05/24 07:15:19;;;;;;;1.00;0.90;;;;;;;14.67;56.23;96054.03;4976288;28;20261;-56
2021/05/24 07:17:44;;;;;;;0.93;0.90;;;;;;;14.90;55.36;96057.03;4976365;28;20185;-58
2021/05/24 07:20:10;;;;;;;1.27;1.00;;;;;;;14.96;55.29;96053.34;4991234;28;20201;-57
2021/05/24 07:22:36;;;;;;;2.30;1.00;;;;;;;14.90;55.21;96053.56;4995559;28;20205;-57
2021/05/24 07:25:03;;;;;;;1.83;1.10;;;;;;;15.07;54.88;96044.34;4969522;28;20428;-58
2021/05/24 07:27:28;;;;;;;0.80;0.80;;;;;;;15.12;54.29;96044.41;4995441;28;20236;-57
2021/05/24 07:29:54;;;;;;;1.53;1.00;;;;;;;14.84;53.77;96041.41;4977267;28;20425;-57
2021/05/24 07:32:19;;;;;;;2.30;0.90;;;;;;;14.76;55.22;96047.19;4975648;28;20170;-57
2021/05/24 07:34:45;;;;;;;0.87;0.70;;;;;;;14.93;56.11;96050.44;4976114;28;20180;-57
2021/05/24 07:37:10;;;;;;;1.03;0.80;;;;;;;14.80;54.67;96042.97;4976221;28;20257;-57
2021/05/24 07:39:36;;;;;;;2.37;1.00;;;;;;;14.91;54.45;96050.66;4976028;28;20194;-57
2021/05/24 07:42:02;;;;;;;1.10;0.60;;;;;;;14.70;53.51;96035.00;4975699;28;20641;-58
2021/05/24 07:44:29;;;;;;;1.33;0.80;;;;;;;15.00;53.98;96029.81;4992464;28;20276;-58
2021/05/24 07:46:55;;;;;;;1.50;1.10;;;;;;;15.29;54.95;96028.28;4986425;28;20416;-57
2021/05/24 07:49:21;;;;;;;1.10;1.00;;;;;;;14.77;54.28;96032.91;4995380;28;20478;-57
2021/05/24 07:51:48;;;;;;;2.03;0.97;;;;;;;14.90;54.87;96035.88;4994855;28;20425;-58
2021/05/24 07:54:13;;;;;;;1.00;0.90;;;;;;;14.89;54.45;96039.56;4995147;28;20460;-56
2021/05/24 07:56:39;;;;;;;1.90;1.07;;;;;;;14.77;54.41;96027.59;4995256;28;20880;-57
2021/05/24 07:59:05;;;;;;;2.10;1.20;;;;;;;14.54;55.12;96028.88;4995042;28;20193;-57
2021/05/24 08:01:31;;;;;;;1.33;0.80;;;;;;;14.90;55.95;96024.47;4991363;28;20244;-56
2021/05/24 08:03:56;;;;;;;1.00;0.90;;;;;;;15.16;56.01;96024.25;4988226;28;20473;-59
2021/05/24 08:06:22;;;;;;;1.50;0.77;;;;;;;15.49;54.43;96016.94;4967505;28;20565;-56
2021/05/24 08:08:47;;;;;;;1.57;1.10;;;;;;;15.48;55.38;96015.34;4994929;28;20334;-57
2021/05/24 08:11:15;;;;;;;2.77;0.80;;;;;;;15.49;54.30;96004.47;4994863;28;20185;-58
2021/05/24 08:13:40;;;;;;;1.03;0.80;;;;;;;15.70;54.29;95992.03;5005095;28;20198;-56
2021/05/24 08:16:06;;;;;;;2.10;0.90;;;;;;;15.62;54.80;96006.59;4993885;28;20436;-58
2021/05/24 08:18:32;;;;;;;1.90;0.80;;;;;;;15.47;55.38;96006.63;4994691;28;20624;-56
2021/05/24 08:20:57;;;;;;;1.10;1.00;;;;;;;15.55;55.82;95999.97;4994762;28;20209;-58
2021/05/24 08:23:22;;;;;;;2.10;0.70;;;;;;;15.69;55.79;96001.03;4994088;28;20667;-58
2021/05/24 08:25:48;;;;;;;2.20;0.80;;;;;;;15.89;55.65;96006.31;4993655;28;20188;-57
2021/05/24 08:28:13;;;;;;;0.93;0.73;;;;;;;15.89;56.02;95998.38;4993954;28;20185;-56
2021/05/24 08:30:39;;;;;;;2.67;0.90;;;;;;;15.80;55.38;95994.69;4992826;28;20170;-57
2021/05/24 08:33:04;;;;;;;0.80;0.80;;;;;;;15.73;56.58;95992.28;4983777;28;20208;-55
2021/05/24 08:35:30;;;;;;;3.30;1.20;;;;;;;16.46;56.54;95980.19;4994193;28;20165;-57
2021/05/24 08:37:55;;;;;;;1.60;1.00;;;;;;;16.57;55.09;95973.00;4993753;28;20699;-59
2021/05/24 08:40:22;;;;;;;1.13;1.00;;;;;;;16.83;56.57;95966.50;4993763;28;20197;-57
2021/05/24 08:42:48;;;;;;;0.97;0.87;;;;;;;16.93;54.04;95966.44;4993240;28;20205;-57
2021/05/24 08:45:14;;;;;;;0.87;0.87;;;;;;;16.94;53.42;95968.03;4991892;28;20915;-57
2021/05/24 08:47:40;;;;;;;1.17;1.03;;;;;;;17.00;53.42;95977.53;4991817;28;20422;-58
2021/05/24 08:50:06;;;;;;;1.00;0.80;;;;;;;17.11;53.00;95973.75;4994049;28;20212;-57
2021/05/24 08:52:32;;;;;;;1.47;0.80;;;;;;;16.69;53.24;95973.47;4993935;28;20261;-56
2021/05/24 08:54:58;;;;;;;0.63;0.60;;;;;;;16.53;51.60;95972.75;4993986;28;20662;-56
2021/05/24 08:57:24;;;;;;;5.47;0.70;;;;;;;16.53;53.13;95971.94;4994072;28;20421;-57
2021/05/24 08:59:50;;;;;;;1.23;1.13;;;;;;;16.77;53.20;95965.75;4992502;28;20256;-59
2021/05/24 09:02:15;;;;;;;1.73;1.00;;;;;;;16.76;52.98;95968.66;4985555;28;20425;-58
2021/05/24 09:04:50;;;;;;;1.10;0.80;;;;;;;17.40;52.44;95958.66;4974483;28;20217;-57
2021/05/24 09:07:17;;;;;;;1.73;0.80;;;;;;;17.71;48.91;95949.38;4974786;28;20275;-58
2021/05/24 09:10:02;;;;;;;0.60;0.60;;;;;;;17.64;49.80;95946.28;4987427;28;20467;-58
2021/05/24 09:12:32;;;;;;;1.10;1.00;;;;;;;17.69;48.82;95951.53;4993369;28;20917;-58
2021/05/24 09:15:00;;;;;;;1.00;0.70;;;;;;;17.36;49.93;95949.66;4992982;28;20460;-55
2021/05/24 09:17:43;;;;;;;1.70;0.90;;;;;;;17.25;49.52;95940.97;4994479;28;20511;-55
2021/05/24 09:20:21;;;;;;;0.77;0.77;;;;;;;17.39;49.21;95947.22;4991600;28;20977;-55
2021/05/24 09:23:08;;;;;;;1.40;0.83;;;;;;;17.63;48.50;95935.94;4989616;28;20483;-57
2021/05/24 09:26:03;;;;;;;0.50;0.50;;;;;;;17.19;48.29;95946.63;4997247;28;20432;-55
2021/05/24 09:28:48;;;;;;;0.70;0.60;;;;;;;17.66;48.50;95936.16;4997917;28;20440;-55
2021/05/24 09:31:32;;;;;;;1.07;0.70;;;;;;;17.76;48.95;95936.03;4996933;28;20478;-58
2021/05/24 09:34:04;;;;;;;0.70;0.70;;;;;;;17.68;46.78;95939.31;4997369;28;20448;-55
2021/05/24 09:36:30;;;;;;;0.97;0.70;;;;;;;17.69;47.03;95937.44;4989397;28;20507;-55
2021/05/24 09:39:13;;;;;;;2.20;0.80;;;;;;;18.05;47.85;95934.16;4993575;28;20527;-57
2021/05/24 09:41:41;;;;;;;0.83;0.80;;;;;;;17.70;46.80;95939.81;4990740;28;20188;-55
2021/05/24 09:44:06;;;;;;;2.40;0.80;;;;;;;17.91;46.59;95927.94;4993924;28;20448;-55
2021/05/24 09:46:32;;;;;;;0.80;0.80;;;;;;;17.67;46.75;95923.63;4975977;28;20790;-57
2021/05/24 09:49:01;;;;;;;1.03;0.70;;;;;;;17.80;47.12;95926.44;4993726;28;20181;-56
2021/05/24 09:51:28;;;;;;;0.90;0.67;;;;;;;18.08;46.82;95912.28;4992867;28;20196;-58
2021/05/24 09:54:06;;;;;;;0.93;0.70;;;;;;;18.03;46.45;95915.03;4978650;28;20456;-56
2021/05/24 09:56:33;;;;;;;1.60;1.07;;;;;;;18.52;46.50;95914.72;4991536;28;20436;-58
2021/05/24 09:59:00;;;;;;;1.20;0.63;;;;;;;18.44;46.63;95920.69;4993741;28;20782;-58
2021/05/24 10:01:34;;;;;;;1.13;0.70;;;;;;;18.98;46.59;95915.69;4992717;28;20443;-59
2021/05/24 10:04:00;;;;;;;1.03;0.87;;;;;;;18.72;46.35;95910.97;4993127;28;20507;-58
2021/05/24 10:06:26;;;;;;;4.37;0.93;;;;;;;18.66;47.23;95917.47;4992981;28;20432;-57
2021/05/24 10:08:53;;;;;;;0.97;0.90;;;;;;;18.71;46.89;95910.22;4993251;28;20178;-58
2021/05/24 10:11:19;;;;;;;0.60;0.60;;;;;;;18.83;44.82;95897.25;4993556;28;20181;-58
2021/05/24 10:13:45;;;;;;;1.73;0.80;;;;;;;19.01;46.42;95885.00;4992349;28;20447;-59
2021/05/24 10:16:12;;;;;;;0.93;0.60;;;;;;;18.91;44.28;95879.84;4993599;28;20229;-56
2021/05/24 10:18:38;;;;;;;1.03;0.90;;;;;;;18.71;46.02;95878.28;4975621;28;20188;-57
2021/05/24 10:21:04;;;;;;;0.70;0.70;;;;;;;19.01;45.17;95882.31;4960337;28;20500;-58
2021/05/24 10:23:30;;;;;;;0.80;0.70;;;;;;;18.99;44.62;95874.63;4982587;28;20527;-55
2021/05/24 10:25:58;;;;;;;0.80;0.80;;;;;;;18.79;42.45;95880.25;4992865;28;20547;-59
2021/05/24 10:28:28;;;;;;;0.70;0.70;;;;;;;18.55;42.74;95881.44;4991990;28;20723;-57
2021/05/24 10:30:55;;;;;;;0.70;0.70;;;;;;;18.63;42.04;95883.44;4992234;28;20428;-58
2021/05/24 10:33:25;;;;;;;0.70;0.70;;;;;;;18.54;40.88;95880.63;4992262;28;20441;-58
2021/05/24 10:35:51;;;;;;;0.50;0.50;;;;;;;18.18;41.32;95880.28;4998303;28;20435;-55
2021/05/24 10:38:19;;;;;;;0.60;0.50;;;;;;;18.48;41.83;95879.09;4993426;28;20523;-57
2021/05/24 10:40:45;;;;;;;0.70;0.70;;;;;;;19.15;41.86;95875.19;5012531;28;20678;-59
2021/05/24 10:43:15;;;;;;;1.20;0.60;;;;;;;19.02;40.52;95878.59;4994679;28;20471;-56
2021/05/24 10:45:40;;;;;;;1.13;0.97;;;;;;;18.88;40.63;95872.44;4994936;28;20485;-59
2021/05/24 10:48:05;;;;;;;0.60;0.60;;;;;;;18.82;40.52;95876.25;5013006;28;20802;-60
2021/05/24 10:50:32;;;;;;;0.60;0.60;;;;;;;18.71;41.31;95872.94;4996132;28;20565;-57
2021/05/24 10:53:01;;;;;;;0.60;0.60;;;;;;;18.82;40.60;95870.91;4996025;28;20668;-59
2021/05/24 10:55:27;;;;;;;0.50;0.50;;;;;;;18.77;39.89;95877.09;4996394;28;20432;-58
2021/05/24 10:57:57;;;;;;;2.00;0.53;;;;;;;18.91;39.60;95871.84;4996206;28;20903;-59
2021/05/24 11:00:23;;;;;;;0.60;0.50;;;;;;;18.41;39.85;95868.81;4995696;28;20197;-57
2021/05/24 11:02:53;;;;;;;1.37;0.53;;;;;;;18.63;40.59;95860.28;4995641;28;21000;-56
2021/05/24 11:05:31;;;;;;;0.60;0.50;;;;;;;18.88;41.73;95862.56;4992024;28;20202;-57
2021/05/24 11:07:57;;;;;;;1.20;1.00;;;;;;;18.96;40.86;95851.25;4983055;28;20421;-56
2021/05/24 11:10:25;;;;;;;1.10;0.50;;;;;;;18.72;40.59;95852.41;4996118;28;20784;-56
2021/05/24 11:12:54;;;;;;;2.00;0.80;;;;;;;18.71;40.09;95851.66;4995150;28;20453;-56
2021/05/24 11:15:34;;;;;;;1.27;0.50;;;;;;;18.72;35.81;95855.88;4996071;28;20411;-55
2021/05/24 11:18:03;;;;;;;1.43;0.73;;;;;;;18.51;36.61;95845.81;4980793;28;20989;-55
2021/05/24 11:20:51;;;;;;;1.27;0.73;;;;;;;18.80;37.44;95846.44;4972883;28;20535;-55
2021/05/24 11:26:12;;;;;;;0.50;0.43;;;;;;;19.11;36.24;95836.91;4981128;28;20432;-56
2021/05/24 11:28:40;;;;;;;1.23;0.90;;;;;;;19.20;36.28;95832.47;4991708;28;21057;-55
2021/05/24 11:31:07;;;;;;;1.23;0.60;;;;;;;19.03;35.15;95838.34;4991175;28;20460;-55
2021/05/24 11:33:37;;;;;;;1.67;0.80;;;;;;;18.95;34.06;95836.34;4991647;28;20436;-55
2021/05/24 11:36:07;;;;;;;0.80;0.80;;;;;;;18.89;36.06;95844.72;4992233;28;20454;-57